Bucyrus, KS

2:06 AM CST on February 12, 2016 (GMT -0600)
MesoWest | | Change Station
CLOSE
Current Station
Personal Weather Station
Location: Bucyrus, KS
Elevation: 1094 ft
Nearby Weather Stations

Elev 1094 ft 38.75 °N, 94.67 °W | Updated 56 minutes ago

Overcast
Overcast
33.0 °F
Feels Like 33.0 °F
N
0.0
Wind Variable Wind from North
Gusts 0.0 mph

Today
High -- | Low -- °F
--% Chance of Precip.
Yesterday
High -- | Low -- °F
Precip. -- in
Pressure 30.21 in
Visibility 10.0 miles
Clouds Overcast 4200 ft
Dew Point Not available.
Humidity Not available.
Rainfall in
Snow Depth Not available.
7:13 AM 5:52 PM
Waxing Crescent, 18% visible
METAR KOJC 120753Z AUTO 01004KT 10SM OVC042 M01/M06 A3018 RMK AO2 SLP229 T10111061
Pressure 30.21 in
Visibility 10.0 miles
Clouds Overcast 4200 ft
Dew Point Not available.
Humidity Not available.
Rainfall in
Snow Depth Not available.
7:13 AM 5:52 PM
Waxing Crescent, 18% visible
METAR KOJC 120753Z AUTO 01004KT 10SM OVC042 M01/M06 A3018 RMK AO2 SLP229 T10111061

10-Day Weather Forecast

Almanac

Astronomy

Feb. 12, 2016 Rise Set
Actual Time
Civil Twilight
Nautical Twilight
Astronomical Twilight
Moon
Length of Visible Light
Length of Day
Tomorrow will be .
, % of the Moon is Illuminated

Today's Extremes

State Highs State Lows

Community

WunderPhotos

Upload Photos

1,892,278 photos uploaded!

WunderBlog® & News

Nearby

Air Quality

  Air Quality AQ Index Pollutant
Not available.

Snow Depth

Station Depth Elevation

Earthquake Activity

City Distance Mag. Time & Date
Minimum magnitude displayed is 2.5.

Coastal Water Temperatures

Place Temperature

Stations

Nearby Weather Stations

Station Location Temp. Windchill Dew Point Humidity Wind Precip. Elev Updated Type
                   

Watches & Warnings

There are currently no watches in effect.